Time,TemperatureF,DewpointF,PressureIn,WindDirection,WindDirectionDegrees,WindSpeedMPH,WindSpeedGustMPH,Humidity,HourlyPrecipIn,Conditions,Clouds,dailyrainin,SoftwareType,DateUTC
2013-02-11 00:02:00,31.0,28.0,29.51,WNW,295,11.0,25.0,89,0.00,,,0.17,,2013-02-11 06:02:00,
2013-02-11 00:11:00,31.0,28.0,29.51,WNW,295,11.0,25.0,89,0.00,,,0.17,,2013-02-11 06:11:00,
2013-02-11 00:21:00,31.0,27.0,29.52,NW,306,14.0,24.0,86,0.00,,,0.15,,2013-02-11 06:21:00,
2013-02-11 00:32:00,31.0,27.0,29.53,NW,307,11.0,24.0,86,0.00,,,0.14,,2013-02-11 06:32:00,
2013-02-11 00:42:00,31.0,27.0,29.54,WNW,302,13.0,25.0,85,0.00,,,0.11,,2013-02-11 06:42:00,
2013-02-11 00:52:00,31.0,27.0,29.54,WNW,302,13.0,25.0,85,0.00,,,0.11,,2013-02-11 06:52:00,
2013-02-11 01:01:00,31.0,27.0,29.54,WNW,300,14.0,24.0,85,0.00,,,0.11,,2013-02-11 07:01:00,
2013-02-11 01:11:00,31.0,26.0,29.56,NW,308,13.0,29.0,82,0.00,,,0.11,,2013-02-11 07:11:00,
2013-02-11 01:21:00,31.0,26.0,29.56,NW,308,13.0,29.0,82,0.00,,,0.11,,2013-02-11 07:21:00,
2013-02-11 01:32:00,31.0,26.0,29.57,NW,307,13.0,25.0,83,0.00,,,0.11,,2013-02-11 07:32:00,
2013-02-11 01:42:00,31.0,26.0,29.58,WNW,302,11.0,26.0,83,0.00,,,0.11,,2013-02-11 07:42:00,
2013-02-11 01:52:00,31.0,26.0,29.58,WNW,302,11.0,26.0,83,0.00,,,0.11,,2013-02-11 07:52:00,
2013-02-11 02:01:00,31.0,27.0,29.59,NW,312,11.0,23.0,84,0.00,,,0.11,,2013-02-11 08:01:00,
2013-02-11 02:11:00,31.0,27.0,29.60,WNW,301,10.0,22.0,85,0.00,,,0.11,,2013-02-11 08:11:00,
2013-02-11 02:21:00,31.0,27.0,29.60,WNW,301,10.0,22.0,85,0.00,,,0.11,,2013-02-11 08:21:00,
2013-02-11 02:31:00,31.0,27.0,29.61,NW,309,14.0,25.0,84,0.00,,,0.11,,2013-02-11 08:31:00,
2013-02-11 02:42:00,31.0,27.0,29.62,NW,311,15.0,30.0,84,0.00,,,0.11,,2013-02-11 08:42:00,
2013-02-11 02:52:00,31.0,27.0,29.62,NW,311,15.0,30.0,84,0.00,,,0.11,,2013-02-11 08:52:00,
2013-02-11 03:01:00,31.0,27.0,29.62,NW,311,15.0,30.0,84,0.00,,,0.11,,2013-02-11 09:01:00,
2013-02-11 03:12:00,31.0,27.0,29.62,NW,311,15.0,30.0,84,0.00,,,0.11,,2013-02-11 09:12:00,
2013-02-11 03:21:00,31.0,26.0,29.64,NW,311,15.0,30.0,83,0.00,,,0.10,,2013-02-11 09:21:00,
2013-02-11 03:31:00,31.0,26.0,29.65,NW,312,14.0,35.0,82,0.00,,,0.10,,2013-02-11 09:31:00,
2013-02-11 03:42:00,31.0,26.0,29.65,NW,312,14.0,35.0,82,0.00,,,0.10,,2013-02-11 09:42:00,
2013-02-11 03:52:00,31.0,26.0,29.66,NW,313,17.0,31.0,81,0.00,,,0.10,,2013-02-11 09:52:00,
2013-02-11 04:01:00,30.0,25.0,29.67,NW,312,14.0,29.0,81,0.00,,,0.10,,2013-02-11 10:01:00,
2013-02-11 04:11:00,30.0,25.0,29.67,NW,312,14.0,29.0,81,0.00,,,0.10,,2013-02-11 10:11:00,
2013-02-11 04:21:00,30.0,25.0,29.68,NW,315,17.0,30.0,81,0.00,,,0.09,,2013-02-11 10:21:00,
2013-02-11 04:31:00,30.0,25.0,29.70,NW,321,15.0,31.0,81,0.00,,,0.09,,2013-02-11 10:31:00,
2013-02-11 04:41:00,30.0,25.0,29.71,NW,320,16.0,32.0,81,0.00,,,0.09,,2013-02-11 10:41:00,
2013-02-11 04:52:00,30.0,25.0,29.71,NW,320,16.0,32.0,81,0.00,,,0.09,,2013-02-11 10:52:00,
2013-02-11 05:01:00,30.0,25.0,29.72,NW,323,17.0,36.0,80,0.00,,,0.09,,2013-02-11 11:01:00,
2013-02-11 05:11:00,30.0,25.0,29.72,NW,323,17.0,36.0,80,0.00,,,0.09,,2013-02-11 11:11:00,
2013-02-11 05:22:00,30.0,25.0,29.72,NW,326,14.0,27.0,81,0.00,,,0.09,,2013-02-11 11:22:00,
2013-02-11 05:32:00,30.0,24.0,29.74,NNW,329,19.0,30.0,79,0.00,,,0.09,,2013-02-11 11:32:00,
2013-02-11 05:42:00,29.0,23.0,29.75,NW,322,18.0,35.0,79,0.00,,,0.09,,2013-02-11 11:42:00,
2013-02-11 05:52:00,29.0,23.0,29.75,NW,322,18.0,35.0,79,0.00,,,0.09,,2013-02-11 11:52:00,
2013-02-11 06:03:00,29.0,24.0,29.76,NW,321,16.0,36.0,81,0.00,,,0.09,,2013-02-11 12:03:00,
2013-02-11 06:12:00,29.0,24.0,29.76,NW,321,16.0,36.0,81,0.00,,,0.09,,2013-02-11 12:12:00,
2013-02-11 06:22:00,29.0,24.0,29.76,NW,326,17.0,28.0,82,0.00,,,0.09,,2013-02-11 12:22:00,
2013-02-11 06:32:00,29.0,24.0,29.78,NNW,327,18.0,33.0,81,0.00,,,0.07,,2013-02-11 12:32:00,
2013-02-11 06:43:00,29.0,-99.9,29.78,North,-999,-999.0,18.0,-999,0.00,,,0.05,,2013-02-11 12:43:00,
2013-02-11 06:52:00,29.0,-99.9,29.78,North,-999,-999.0,18.0,-999,0.00,,,0.05,,2013-02-11 12:52:00,
2013-02-11 08:42:00,27.0,22.0,29.86,NNW,329,18.0,24.0,80,0.00,,,0.02,,2013-02-11 14:42:00,
2013-02-11 08:52:00,27.0,22.0,29.86,NNW,329,18.0,24.0,80,0.00,,,0.02,,2013-02-11 14:52:00,
2013-02-11 09:02:00,27.0,21.0,29.88,NW,324,18.0,32.0,79,0.00,,,0.02,,2013-02-11 15:02:00,
2013-02-11 09:11:00,27.0,21.0,29.88,NW,324,18.0,32.0,79,0.00,,,0.02,,2013-02-11 15:11:00,
2013-02-11 09:22:00,27.0,21.0,29.89,NNW,330,17.0,34.0,79,0.00,,,0.02,,2013-02-11 15:22:00,
2013-02-11 09:32:00,28.0,22.0,29.89,NW,319,15.0,36.0,79,0.00,,,0.02,,2013-02-11 15:32:00,
2013-02-11 09:42:00,28.0,22.0,29.91,NNW,332,17.0,28.0,78,0.00,,,0.02,,2013-02-11 15:42:00,
2013-02-11 09:52:00,28.0,22.0,29.91,NNW,332,17.0,28.0,78,0.00,,,0.02,,2013-02-11 15:52:00,
2013-02-11 10:02:00,28.0,22.0,29.92,NNW,329,18.0,27.0,78,0.00,,,0.02,,2013-02-11 16:02:00,
2013-02-11 10:11:00,28.0,22.0,29.92,NNW,333,17.0,28.0,78,0.00,,,0.02,,2013-02-11 16:11:00,
2013-02-11 10:22:00,28.0,22.0,29.92,NNW,333,17.0,28.0,78,0.00,,,0.02,,2013-02-11 16:22:00,
2013-02-11 10:32:00,28.0,23.0,29.93,NNW,331,16.0,32.0,80,0.00,,,0.01,,2013-02-11 16:32:00,
2013-02-11 10:42:00,28.0,23.0,29.94,NW,325,10.0,27.0,82,0.00,,,0.01,,2013-02-11 16:42:00,
2013-02-11 10:52:00,28.0,23.0,29.94,NW,325,10.0,27.0,82,0.00,,,0.01,,2013-02-11 16:52:00,
2013-02-11 11:02:00,28.0,23.0,29.95,NNW,329,14.0,26.0,80,0.00,,,0.01,,2013-02-11 17:02:00,
2013-02-11 11:11:00,28.0,23.0,29.95,NNW,329,14.0,26.0,80,0.00,,,0.01,,2013-02-11 17:11:00,
2013-02-11 11:21:00,28.0,23.0,29.96,NW,322,15.0,31.0,80,0.00,,,0.01,,2013-02-11 17:21:00,
2013-02-11 11:32:00,28.0,23.0,29.96,NW,318,14.0,30.0,80,0.00,,,0.01,,2013-02-11 17:32:00,
2013-02-11 11:42:00,28.0,23.0,29.96,NW,318,14.0,30.0,80,0.00,,,0.01,,2013-02-11 17:42:00,
2013-02-11 11:53:00,29.0,23.0,29.97,NW,313,13.0,26.0,79,0.00,,,0.01,,2013-02-11 17:53:00,
2013-02-11 12:01:00,29.0,24.0,29.97,NW,324,12.0,24.0,81,0.00,,,0.01,,2013-02-11 18:01:00,
2013-02-11 12:11:00,29.0,24.0,29.97,NW,324,12.0,24.0,81,0.00,,,0.01,,2013-02-11 18:11:00,
2013-02-11 12:21:00,29.0,24.0,29.97,NW,312,15.0,27.0,80,0.00,,,0.01,,2013-02-11 18:21:00,
2013-02-11 12:32:00,29.0,24.0,29.97,NNW,330,16.0,29.0,80,0.00,,,0.01,,2013-02-11 18:32:00,
2013-02-11 12:42:00,29.0,23.0,29.97,NNW,328,17.0,28.0,79,0.00,,,0.01,,2013-02-11 18:42:00,
2013-02-11 12:53:00,29.0,23.0,29.97,NNW,328,17.0,28.0,79,0.00,,,0.01,,2013-02-11 18:53:00,
2013-02-11 13:02:00,29.0,23.0,29.98,NNW,329,16.0,27.0,79,0.00,,,0.01,,2013-02-11 19:02:00,
2013-02-11 13:11:00,29.0,23.0,29.98,NW,323,11.0,26.0,79,0.00,,,0.01,,2013-02-11 19:11:00,
2013-02-11 13:21:00,29.0,23.0,29.98,NW,323,11.0,26.0,79,0.00,,,0.01,,2013-02-11 19:21:00,
2013-02-11 13:32:00,29.0,23.0,29.98,NW,318,17.0,28.0,79,0.00,,,0.01,,2013-02-11 19:32:00,
2013-02-11 13:41:00,29.0,23.0,29.98,NW,318,17.0,28.0,79,0.00,,,0.01,,2013-02-11 19:41:00,
2013-02-11 13:51:00,29.0,24.0,29.98,NW,316,13.0,25.0,80,0.00,,,0.01,,2013-02-11 19:51:00,
2013-02-11 14:01:00,29.0,24.0,29.98,NW,314,11.0,26.0,80,0.00,,,0.01,,2013-02-11 20:01:00,
2013-02-11 14:11:00,29.0,24.0,29.99,NW,325,13.0,23.0,80,0.00,,,0.01,,2013-02-11 20:11:00,
2013-02-11 14:21:00,29.0,24.0,29.99,NW,325,13.0,23.0,80,0.00,,,0.01,,2013-02-11 20:21:00,
2013-02-11 14:32:00,29.0,23.0,29.99,NW,319,13.0,25.0,79,0.00,,,0.01,,2013-02-11 20:32:00,
2013-02-11 14:42:00,30.0,24.0,29.99,NNW,333,15.0,30.0,79,0.00,,,0.01,,2013-02-11 20:42:00,
2013-02-11 14:52:00,30.0,24.0,29.99,NNW,333,15.0,30.0,79,0.00,,,0.01,,2013-02-11 20:52:00,
2013-02-11 15:02:00,30.0,25.0,30.00,NW,312,12.0,23.0,80,0.00,,,0.01,,2013-02-11 21:02:00,
2013-02-11 15:11:00,30.0,25.0,30.00,NW,312,12.0,23.0,80,0.00,,,0.01,,2013-02-11 21:11:00,
2013-02-11 15:21:00,30.0,25.0,30.00,NW,312,12.0,23.0,80,0.00,,,0.01,,2013-02-11 21:21:00,
2013-02-11 15:32:00,30.0,25.0,30.00,NW,322,17.0,25.0,80,0.00,,,0.01,,2013-02-11 21:32:00,
2013-02-11 15:42:00,30.0,25.0,30.01,NW,310,10.0,23.0,80,0.00,,,0.01,,2013-02-11 21:42:00,
2013-02-11 15:52:00,30.0,25.0,30.01,NW,310,10.0,23.0,80,0.00,,,0.01,,2013-02-11 21:52:00,
2013-02-11 16:02:00,30.0,24.0,30.01,NW,318,17.0,25.0,78,0.00,,,0.01,,2013-02-11 22:02:00,
2013-02-11 16:11:00,30.0,24.0,30.02,NNW,334,15.0,28.0,79,0.00,,,0.01,,2013-02-11 22:11:00,
2013-02-11 16:21:00,30.0,24.0,30.02,NNW,334,15.0,28.0,79,0.00,,,0.01,,2013-02-11 22:21:00,
2013-02-11 16:32:00,30.0,25.0,30.02,NW,319,12.0,24.0,80,0.00,,,0.01,,2013-02-11 22:32:00,
2013-02-11 16:42:00,30.0,25.0,30.02,NW,319,12.0,24.0,80,0.00,,,0.01,,2013-02-11 22:42:00,
2013-02-11 16:52:00,30.0,25.0,30.02,NW,313,9.0,19.0,80,0.00,,,0.01,,2013-02-11 22:52:00,
2013-02-11 17:02:00,30.0,25.0,30.03,NW,312,8.0,22.0,81,0.00,,,0.01,,2013-02-11 23:02:00,
2013-02-11 17:11:00,30.0,25.0,30.03,NW,312,8.0,22.0,81,0.00,,,0.01,,2013-02-11 23:11:00,
2013-02-11 17:21:00,29.0,24.0,30.03,NNW,329,13.0,24.0,80,0.00,,,0.01,,2013-02-11 23:21:00,
2013-02-11 17:32:00,29.0,24.0,30.04,WNW,303,10.0,15.0,81,0.00,,,0.01,,2013-02-11 23:32:00,
2013-02-11 17:42:00,29.0,24.0,30.04,WNW,303,10.0,15.0,81,0.00,,,0.01,,2013-02-11 23:42:00,
2013-02-11 17:52:00,29.0,24.0,30.04,NW,317,10.0,22.0,81,0.00,,,0.01,,2013-02-11 23:52:00,
2013-02-11 18:01:00,29.0,24.0,30.04,NW,317,7.0,15.0,82,0.00,,,0.01,,2013-02-12 00:01:00,
2013-02-11 18:11:00,29.0,24.0,30.04,NW,317,7.0,15.0,82,0.00,,,0.01,,2013-02-12 00:11:00,
2013-02-11 18:22:00,29.0,24.0,30.05,NNW,329,7.0,19.0,82,0.00,,,0.01,,2013-02-12 00:22:00,
2013-02-11 18:32:00,29.0,25.0,30.05,NW,323,8.0,13.0,83,0.00,,,0.01,,2013-02-12 00:32:00,
2013-02-11 18:42:00,29.0,25.0,30.05,NW,323,8.0,13.0,83,0.00,,,0.01,,2013-02-12 00:42:00,
2013-02-11 18:52:00,29.0,25.0,30.05,NW,316,11.0,22.0,83,0.00,,,0.01,,2013-02-12 00:52:00,
2013-02-11 19:01:00,28.0,23.0,30.06,NW,318,9.0,21.0,82,0.00,,,0.01,,2013-02-12 01:01:00,
2013-02-11 19:11:00,28.0,23.0,30.06,NW,318,9.0,21.0,82,0.00,,,0.01,,2013-02-12 01:11:00,
2013-02-11 19:21:00,28.0,23.0,30.06,NW,316,9.0,18.0,82,0.00,,,0.01,,2013-02-12 01:21:00,
2013-02-11 19:32:00,28.0,24.0,30.06,NW,323,7.0,13.0,84,0.00,,,0.01,,2013-02-12 01:32:00,
2013-02-11 19:42:00,28.0,24.0,30.06,NNW,327,9.0,18.0,83,0.00,,,0.00,,2013-02-12 01:42:00,
2013-02-11 19:51:00,28.0,24.0,30.06,NNW,327,9.0,18.0,83,0.00,,,0.00,,2013-02-12 01:51:00,
2013-02-11 20:01:00,28.0,24.0,30.06,NNW,333,9.0,18.0,83,0.00,,,0.00,,2013-02-12 02:01:00,
2013-02-11 20:11:00,28.0,24.0,30.07,NNW,332,8.0,14.0,83,0.00,,,0.00,,2013-02-12 02:11:00,
2013-02-11 20:21:00,28.0,24.0,30.07,NNW,332,8.0,14.0,83,0.00,,,0.00,,2013-02-12 02:21:00,
2013-02-11 20:31:00,27.0,22.0,30.07,NNW,335,10.0,20.0,82,0.00,,,0.00,,2013-02-12 02:31:00,
2013-02-11 20:41:00,27.0,22.0,30.07,NNW,335,10.0,20.0,82,0.00,,,0.00,,2013-02-12 02:41:00,
2013-02-11 20:52:00,27.0,22.0,30.07,NW,326,9.0,16.0,82,0.00,,,0.00,,2013-02-12 02:52:00,
2013-02-11 21:02:00,27.0,23.0,30.07,NNW,332,8.0,16.0,83,0.00,,,0.00,,2013-02-12 03:02:00,
2013-02-11 21:11:00,28.0,24.0,30.08,NNW,327,6.0,15.0,84,0.00,,,0.00,,2013-02-12 03:11:00,
2013-02-11 21:21:00,28.0,24.0,30.08,NNW,327,6.0,15.0,84,0.00,,,0.00,,2013-02-12 03:21:00,
2013-02-11 21:31:00,28.0,24.0,30.07,NW,315,8.0,15.0,84,0.00,,,0.00,,2013-02-12 03:31:00,
2013-02-11 21:41:00,27.0,23.0,30.07,NW,313,7.0,15.0,83,0.00,,,0.00,,2013-02-12 03:41:00,
2013-02-11 21:52:00,27.0,23.0,30.07,NW,313,7.0,15.0,83,0.00,,,0.00,,2013-02-12 03:52:00,
2013-02-11 22:01:00,27.0,23.0,30.07,NW,313,5.0,14.0,84,0.00,,,0.00,,2013-02-12 04:01:00,
2013-02-11 22:11:00,27.0,23.0,30.07,NW,313,5.0,14.0,84,0.00,,,0.00,,2013-02-12 04:11:00,
2013-02-11 22:21:00,27.0,23.0,30.07,NNW,332,6.0,15.0,84,0.00,,,0.00,,2013-02-12 04:21:00,
2013-02-11 22:31:00,27.0,23.0,30.07,NW,314,9.0,22.0,84,0.00,,,0.00,,2013-02-12 04:31:00,
2013-02-11 22:41:00,27.0,23.0,30.07,NW,314,9.0,22.0,84,0.00,,,0.00,,2013-02-12 04:41:00,
2013-02-11 22:52:00,27.0,23.0,30.07,NW,318,8.0,22.0,84,0.00,,,0.00,,2013-02-12 04:52:00,
2013-02-11 23:01:00,27.0,23.0,30.07,NW,324,10.0,20.0,84,0.00,,,0.00,,2013-02-12 05:01:00,
2013-02-11 23:11:00,27.0,23.0,30.08,NW,314,9.0,21.0,84,0.00,,,0.00,,2013-02-12 05:11:00,
2013-02-11 23:21:00,27.0,23.0,30.08,NW,314,9.0,21.0,84,0.00,,,0.00,,2013-02-12 05:21:00,
2013-02-11 23:31:00,27.0,23.0,30.08,NW,318,6.0,14.0,84,0.00,,,0.00,,2013-02-12 05:31:00,
2013-02-11 23:42:00,27.0,23.0,30.08,NW,318,6.0,14.0,84,0.00,,,0.00,,2013-02-12 05:42:00,
2013-02-11 23:52:00,27.0,23.0,30.08,NW,321,7.0,12.0,85,0.00,,,0.00,,2013-02-12 05:52:00,